Farmington, NM

8:53 PM MST on November 22, 2014 (GMT -0700)
Pagosa Springs | Change Station
CLOSE
Current Station
Airport
Location: Pagosa Springs,
Elevation: 7657 ft
Nearby Weather Stations
Active Advisory: Wind Advisory

Elev 7657 ft 37.29 °N, 107.06 °W | Updated 18 minutes ago

Mostly Cloudy
Mostly Cloudy
32 °F
Feels Like 32 °F
N
0
Wind Variable Wind from North

Today
High -- | Low -- °F
--% Chance of Precip.
Yesterday
High -- | Low -- °F
Precip. -- in
6:58 AM 4:59 PM
New Moon, 0% visible
Pressure 29.92 in
Visibility 10.0 miles
Clouds Scattered Clouds 3300 ft
Scattered Clouds 4500 ft
Mostly Cloudy 6000 ft
Dew Point 21 °F
Humidity 65%
Rainfall 0.00 in
Snow Depth Not available.
UV 0 out of 12
Pollen .30 out of 12
Air Quality Not available.
Flu Activity Not available.
METAR KPSO 230335Z AUTO 00000KT 10SM SCT033 SCT045 BKN060 00/M06 A2992 RMK AO2 T00001059

More Conditions Fewer Conditions

Pressure 29.92 in
Visibility 10.0 miles
Clouds Scattered Clouds 3300 ft
Scattered Clouds 4500 ft
Mostly Cloudy 6000 ft
Dew Point 21 °F
Humidity 65%
Rainfall 0.00 in
Snow Depth Not available.
UV 0 out of 12
Pollen .30 out of 12
Air Quality Not available.
Flu Activity Not available.
METAR KPSO 230335Z AUTO 00000KT 10SM SCT033 SCT045 BKN060 00/M06 A2992 RMK AO2 T00001059

More Conditions Fewer Conditions

10-Day Weather Forecast

Almanac

Astronomy

Nov. 22, 2014 Rise Set
Actual Time
Civil Twilight
Nautical Twilight
Astronomical Twilight
Moon
Length of Visible Light
Length of Day
Tomorrow will be .
, % of the Moon is Illuminated

Today's Extremes

State Highs State Lows

Community

WunderPhotos

Upload Photos

1,772,990 photos uploaded!

WunderBlogs® & News

Nearby

Air Quality

  Air Quality AQ Index Pollutant
Not available.

Snow Depth

Station Depth Elevation

Earthquake Activity

City Distance Mag. Time & Date
Minimum magnitude displayed is 2.5.

Coastal Water Temperatures

Place Temperature

Nearby Weather Stations